KSWW

Details ICAO KSWW
Name AVENGER FLD
Region United States
Timezone America/Chicago (UTC-6.0)
Plans Departing 4
Arriving 3
Stats Elevation 2,380 ft / 725 m (AMSL)
Location 32.466661° -100.466995°
Runways 3
Magnetic Variation 5.380° E
Sunrise 2017-12-16 13:38:16 UTC / 2017-12-16 07:38:16 Local
Sunset 2017-12-16 23:39:45 UTC / 2017-12-16 17:39:45 Local
Advertisement - Login to hide

Runways

ID Width Length Bearing (true) Bearing (mag) Surface Threshold Offset Overrun Length
04 75 ft / 23 m 5,663 ft / 1,726 m 43.28° 37.90° Asphalt 0 ft / 0 m 0 ft / 0 m
13 175 ft / 53 m 1,648 ft / 502 m 137.57° 132.19° Asphalt 0 ft / 0 m 0 ft / 0 m
17 100 ft / 30 m 5,856 ft / 1,785 m 173.68° 168.30° Asphalt 0 ft / 0 m 425 ft / 130 m
22 75 ft / 23 m 5,663 ft / 1,726 m 223.29° 217.91° Asphalt 0 ft / 0 m 400 ft / 122 m
31 175 ft / 53 m 1,648 ft / 502 m 317.57° 312.19° Asphalt 0 ft / 0 m 0 ft / 0 m
35 100 ft / 30 m 5,856 ft / 1,785 m 353.68° 348.30° Asphalt 0 ft / 0 m 0 ft / 0 m

Map

Weather


0- 5 10 15 20 25 30 35+ Temperature / ° C

Clouds and Precipitation
Forecast for 2017-12-16 12:00 UTC. Updated 2 hours ago

Ground ~20,000 ft ~40,000 ft Winds

METAR

KSWW 161115Z AUTO 18010KT 10SM CLR 03/M03 A3006 RMK AO2 T00301032

TAF

Not found

Frequencies

Recorded 119.02 MHz AWOS 3
Approach 127.20 MHz ABILENE APP/DEP
Unicom 122.80 MHz CTAF/UNICOM
Warning: Do not use this data for real-world aviation or navigation. No guarantee of current accuracy is given.